Date,TemperatureHighF,TemperatureAvgF,TemperatureLowF,DewpointHighF,DewpointAvgF,DewpointLowF,HumidityHigh,HumidityAvg,HumidityLow,PressureMaxIn,PressureMinIn,WindSpeedMaxMPH,WindSpeedAvgMPH,GustSpeedMaxMPH,PrecipitationSumIn
2013-1-1,-200,0,200,-100,-100,-100,0,0,100,30.12,30.01,0,-999,0,0.00
2013-1-2,32,10,23,25,-55,-100,93,31,75,30.28,30.11,4,-634,7,0.00
2013-1-3,38,12,18,29,-57,-100,92,25,64,30.40,30.24,10,-650,16,0.00
2013-1-4,38,13,27,29,-52,-100,88,29,69,30.44,30.36,15,-624,20,0.00
2013-1-5,44,14,20,33,-52,-100,94,27,64,30.39,30.20,11,-632,16,0.00
2013-1-6,40,10,35,35,-64,-100,85,22,75,30.39,30.11,17,-723,23,0.00
2013-1-7,41,13,18,30,-51,-100,93,29,63,30.47,30.24,6,-612,10,0.00
2013-1-8,53,18,29,40,-48,-100,93,25,58,30.33,30.20,15,-621,21,0.00
2013-1-9,56,12,50,48,-67,-100,87,17,74,30.46,30.21,4,-778,8,0.00
2013-1-10,-200,0,200,-100,-100,-100,0,0,100,30.46,29.98,0,-999,0,0.00
2013-1-11,66,23,56,55,-42,-100,97,29,63,29.98,29.82,17,-621,25,0.30
2013-1-12,66,13,65,65,-67,-100,98,19,94,29.99,29.75,7,-798,11,0.01
2013-1-13,-200,0,200,-100,-100,-100,0,0,100,30.18,29.73,0,-999,0,0.00
2013-1-14,31,8,26,26,-67,-100,88,22,80,30.46,30.18,10,-734,15,0.00
2013-1-15,31,7,27,27,-72,-100,92,19,84,30.34,30.07,13,-775,17,0.00
2013-1-16,-200,0,200,-100,-100,-100,0,0,100,30.12,30.02,0,-999,0,0.00
2013-1-17,45,13,31,36,-57,-100,91,24,65,30.41,30.09,18,-673,21,0.02
2013-1-18,43,14,21,31,-49,-100,91,28,60,30.55,30.31,11,-594,13,0.00
2013-1-19,55,19,37,36,-47,-100,74,23,47,30.30,30.00,21,-597,28,0.00
2013-1-20,42,15,35,26,-54,-100,69,19,40,30.25,30.04,13,-615,19,0.00
2013-1-21,28,10,23,19,-57,-100,82,22,44,30.31,30.16,21,-612,27,0.00
2013-1-22,21,6,12,5,-66,-100,64,18,46,30.46,30.31,9,-664,15,0.00
2013-1-23,38,12,13,23,-52,-100,82,24,50,30.40,30.11,13,-585,16,0.00
2013-1-24,28,10,20,13,-56,-100,70,20,37,30.58,30.17,16,-585,24,0.00
2013-1-25,28,3,27,26,-84,-100,92,11,89,30.39,30.10,7,-874,10,0.00
2013-1-26,37,12,23,27,-52,-100,93,29,65,30.40,30.21,6,-620,8,0.04
2013-1-27,41,12,25,34,-55,-100,92,29,74,30.40,30.15,10,-650,13,0.00
2013-1-28,-200,0,200,-100,-100,-100,0,0,100,30.16,30.05,0,-999,0,0.00
2013-1-29,65,18,61,61,-55,-100,92,25,86,30.05,29.54,20,-712,28,0.00
2013-1-30,56,8,55,52,-79,-100,88,12,80,29.71,29.32,20,-859,26,0.00
2013-1-31,35,9,27,26,-65,-100,90,20,66,30.16,29.72,23,-715,26,0.00
2013-2-1,21,6,7,12,-57,-100,78,28,66,30.51,30.17,15,-592,18,0.00
2013-2-2,37,12,28,29,-56,-100,88,26,69,30.36,30.04,15,-649,22,0.00
2013-2-3,31,8,30,29,-65,-100,94,24,79,30.17,29.98,21,-720,24,0.00
2013-2-4,50,12,29,37,-62,-100,85,19,58,30.15,29.84,14,-713,26,0.00
2013-2-5,51,13,36,40,-60,-100,95,22,63,30.03,29.87,10,-710,16,0.00
2013-2-6,46,16,28,36,-47,-100,94,31,68,30.25,30.04,8,-603,10,0.00
2013-2-7,65,21,36,48,-48,-100,87,23,51,30.15,29.82,12,-632,22,0.00
2013-2-8,-200,0,200,-100,-100,-100,0,0,100,30.31,29.82,0,-999,0,0.00
2013-2-9,47,16,28,31,-48,-100,86,27,53,30.39,30.16,9,-592,14,0.00
2013-2-10,58,9,51,43,-77,-100,68,10,57,30.15,29.79,16,-838,31,0.00
2013-2-11,51,19,43,37,-46,-100,71,25,48,30.11,29.80,20,-587,28,0.00
2013-2-12,49,18,27,34,-44,-100,90,27,53,30.16,29.88,6,-578,11,0.00
2013-2-13,40,9,32,36,-67,-100,95,22,80,29.94,29.76,9,-751,12,0.03
2013-2-14,56,18,36,42,-48,-100,94,26,56,29.98,29.88,21,-627,22,0.00
2013-2-15,42,12,37,35,-62,-100,85,21,58,30.18,29.99,19,-702,21,0.00
2013-2-16,32,12,22,22,-51,-100,87,27,47,30.18,30.10,23,-579,27,0.00
2013-2-17,40,14,18,22,-48,-100,83,27,47,30.28,30.16,6,-561,13,0.00
2013-2-18,61,21,35,42,-47,-100,67,21,45,30.18,29.74,26,-607,34,0.00
2013-2-19,38,13,32,28,-54,-100,79,25,55,30.21,29.72,20,-626,31,0.01
2013-2-20,31,11,19,19,-50,-100,80,28,60,30.35,30.21,10,-572,13,0.00
2013-2-21,37,12,20,25,-52,-100,85,27,59,30.33,29.97,14,-603,21,0.00
2013-2-22,48,14,44,42,-56,-100,88,25,78,30.00,29.86,18,-684,25,0.00
2013-2-23,31,2,28,24,-90,-100,84,7,76,30.02,29.93,5,-915,6,0.00
2013-2-24,-200,0,200,-100,-100,-100,0,0,100,30.13,29.99,0,-999,0,0.00
2013-2-25,-200,0,200,-100,-100,-100,0,0,100,30.07,29.71,0,-999,0,0.00
2013-2-26,-200,0,200,-100,-100,-100,0,0,100,29.70,29.34,0,-999,0,0.00
2013-2-27,-200,0,200,-100,-100,-100,0,0,100,29.78,29.56,0,-999,0,0.00
2013-2-28,-200,0,200,-100,-100,-100,0,0,100,29.98,29.76,0,-999,0,0.00
2013-3-1,-200,0,200,-100,-100,-100,0,0,100,30.00,29.93,0,-999,0,0.00
2013-3-2,-200,0,200,-100,-100,-100,0,0,100,30.09,29.98,0,-999,0,0.00
2013-3-3,-200,0,200,-100,-100,-100,0,0,100,30.10,30.03,0,-999,0,0.00
2013-3-4,-200,0,200,-100,-100,-100,0,0,100,30.11,29.88,0,-999,0,0.00
2013-3-5,-200,0,200,-100,-100,-100,0,0,100,29.87,29.59,0,-999,0,0.00
2013-3-6,-200,0,200,-100,-100,-100,0,0,100,30.27,29.82,0,-999,0,0.00
2013-3-7,-200,0,200,-100,-100,-100,0,0,100,30.36,30.25,0,-999,0,0.00
2013-3-8,-200,0,200,-100,-100,-100,0,0,100,30.42,30.30,0,-999,0,0.00
2013-3-9,-200,0,200,-100,-100,-100,0,0,100,30.29,30.01,0,-999,0,0.00
2013-3-10,-200,0,200,-100,-100,-100,0,0,100,30.00,29.77,0,-999,0,0.00
2013-3-11,-200,0,200,-100,-100,-100,0,0,100,29.91,29.68,0,-999,0,0.00
2013-3-12,-200,0,200,-100,-100,-100,0,0,100,30.07,29.91,0,-999,0,0.00
2013-3-13,-200,0,200,-100,-100,-100,0,0,100,30.36,30.05,0,-999,0,0.00
2013-3-14,-200,0,200,-100,-100,-100,0,0,100,30.37,30.18,0,-999,0,0.00
2013-3-15,-200,0,200,-100,-100,-100,0,0,100,30.18,29.75,0,-999,0,0.00
2013-3-16,-200,0,200,-100,-100,-100,0,0,100,29.95,29.66,0,-999,0,0.00
2013-3-17,-200,0,200,-100,-100,-100,0,0,100,30.04,29.84,0,-999,0,0.00
2013-3-18,-200,0,200,-100,-100,-100,0,0,100,29.88,29.57,0,-999,0,0.00
2013-3-19,-200,0,200,-100,-100,-100,0,0,100,30.14,29.88,0,-999,0,0.00
2013-3-20,-200,0,200,-100,-100,-100,0,0,100,30.13,30.00,0,-999,0,0.00
2013-3-21,-200,0,200,-100,-100,-100,0,0,100,30.04,29.96,0,-999,0,0.00
2013-3-22,-200,0,200,-100,-100,-100,0,0,100,30.05,29.97,0,-999,0,0.00
2013-3-23,-200,0,200,-100,-100,-100,0,0,100,30.00,29.78,0,-999,0,0.00
2013-3-24,-200,0,200,-100,-100,-100,0,0,100,29.77,29.36,0,-999,0,0.00
2013-3-25,-200,0,200,-100,-100,-100,0,0,100,30.00,29.48,0,-999,0,0.00
2013-3-26,-200,0,200,-100,-100,-100,0,0,100,30.27,30.00,0,-999,0,0.00
2013-3-27,-200,0,200,-100,-100,-100,0,0,100,30.34,30.27,0,-999,0,0.00
2013-3-28,-200,0,200,-100,-100,-100,0,0,100,30.36,30.26,0,-999,0,0.00
2013-3-29,-200,0,200,-100,-100,-100,0,0,100,30.29,30.18,0,-999,0,0.00
2013-3-30,-200,0,200,-100,-100,-100,0,0,100,30.21,29.91,0,-999,0,0.00
2013-3-31,-200,0,200,-100,-100,-100,0,0,100,29.91,29.80,0,-999,0,0.00
2013-4-1,-200,0,200,-100,-100,-100,0,0,100,30.13,29.83,0,-999,0,0.00
2013-4-2,-200,0,200,-100,-100,-100,0,0,100,30.26,30.12,0,-999,0,0.00
2013-4-3,-200,0,200,-100,-100,-100,0,0,100,30.35,30.23,0,-999,0,0.00
2013-4-4,-200,0,200,-100,-100,-100,0,0,100,30.24,29.98,0,-999,0,0.00
2013-4-5,-200,0,200,-100,-100,-100,0,0,100,30.09,29.98,0,-999,0,0.00
2013-4-6,-200,0,200,-100,-100,-100,0,0,100,30.12,29.89,0,-999,0,0.00
2013-4-7,-200,0,200,-100,-100,-100,0,0,100,29.97,29.89,0,-999,0,0.00
2013-4-8,-200,0,200,-100,-100,-100,0,0,100,29.95,29.87,0,-999,0,0.00
2013-4-9,-200,0,200,-100,-100,-100,0,0,100,30.05,29.92,0,-999,0,0.00